createdAt,value
2022-12-28T00:00:51.039Z,93947.94
2022-12-28T00:02:22.824Z,93947.38
2022-12-28T00:03:54.469Z,93953.00
2022-12-28T00:05:26.113Z,93953.78
2022-12-28T00:06:57.690Z,93940.97
2022-12-28T00:08:29.177Z,93949.81
2022-12-28T00:10:00.710Z,93955.41
2022-12-28T00:11:32.263Z,93955.16
2022-12-28T00:13:03.804Z,93958.13
2022-12-28T00:14:35.392Z,93956.50
2022-12-28T00:16:27.542Z,93963.97
2022-12-28T00:17:59.241Z,93962.13
2022-12-28T00:19:30.815Z,93967.72
2022-12-28T00:21:02.569Z,93970.94
2022-12-28T00:22:34.218Z,93956.47
2022-12-28T00:24:05.845Z,93956.72
2022-12-28T00:25:37.424Z,93960.69
2022-12-28T00:27:09.018Z,93956.66
2022-12-28T00:28:41.020Z,93962.31
2022-12-28T00:30:12.901Z,93958.81
2022-12-28T00:31:46.260Z,93963.09
2022-12-28T00:33:17.879Z,93963.66
2022-12-28T00:34:49.545Z,93957.00
2022-12-28T00:36:21.057Z,93962.63
2022-12-28T00:37:52.987Z,93963.72
2022-12-28T00:39:24.614Z,93963.97
2022-12-28T00:40:56.239Z,93957.56
2022-12-28T00:42:27.778Z,93966.66
2022-12-28T00:43:59.387Z,93969.88
2022-12-28T00:45:31.030Z,93976.28
2022-12-28T00:47:02.688Z,93977.34
2022-12-28T00:48:34.502Z,93985.31
2022-12-28T00:50:06.291Z,93984.22
2022-12-28T00:51:37.830Z,93983.13
2022-12-28T00:53:09.665Z,93985.00
2022-12-28T00:54:41.259Z,93975.13
2022-12-28T00:56:13.819Z,93977.78
2022-12-28T00:57:45.439Z,93970.53
2022-12-28T00:59:17.631Z,93969.47
2022-12-28T01:00:49.473Z,93974.00
2022-12-28T01:02:21.145Z,93972.13
2022-12-28T01:03:54.785Z,93968.38
2022-12-28T01:05:26.502Z,93967.84
2022-12-28T01:06:58.201Z,93972.94
2022-12-28T01:08:29.898Z,93967.34
2022-12-28T01:10:01.522Z,93964.13
2022-12-28T01:11:33.057Z,93972.66
2022-12-28T01:13:04.663Z,93974.25
2022-12-28T01:14:36.493Z,93967.31
2022-12-28T01:16:14.591Z,93969.47
2022-12-28T01:17:46.160Z,93972.94
2022-12-28T01:19:20.844Z,93972.66
2022-12-28T01:20:52.503Z,93967.03
2022-12-28T01:22:24.135Z,93971.56
2022-12-28T01:23:56.681Z,93968.91
2022-12-28T01:25:28.321Z,93968.09
2022-12-28T01:26:59.844Z,93969.72
2022-12-28T01:28:31.506Z,93962.50
2022-12-28T01:30:03.118Z,93966.81
2022-12-28T01:31:34.797Z,93973.50
2022-12-28T01:33:06.376Z,93967.59
2022-12-28T01:34:38.030Z,93970.28
2022-12-28T01:36:10.225Z,93963.06
2022-12-28T01:37:41.931Z,93969.50
2022-12-28T01:39:13.497Z,93957.22
2022-12-28T01:40:45.216Z,93948.94
2022-12-28T01:42:17.507Z,93955.94
2022-12-28T01:43:52.123Z,93954.59
2022-12-28T01:45:23.777Z,93961.00
2022-12-28T01:46:55.301Z,93953.28
2022-12-28T01:48:26.801Z,93949.50
2022-12-28T01:50:18.663Z,93954.59
2022-12-28T01:51:50.171Z,93964.47
2022-12-28T01:53:21.674Z,93964.47
2022-12-28T01:54:54.612Z,93963.66
2022-12-28T01:56:26.172Z,93967.66
2022-12-28T01:57:57.819Z,93967.38
2022-12-28T01:59:30.491Z,93962.03
2022-12-28T02:01:02.202Z,93966.84
2022-12-28T02:02:34.122Z,93963.38
2022-12-28T02:04:05.933Z,93962.81
2022-12-28T02:05:38.795Z,93963.38
2022-12-28T02:07:10.469Z,93961.25
2022-12-28T02:08:44.379Z,93971.38
2022-12-28T02:10:42.675Z,93966.28
2022-12-28T02:12:12.503Z,93964.91
2022-12-28T02:13:44.610Z,93960.09
2022-12-28T02:15:22.764Z,93965.13
2022-12-28T02:16:54.894Z,93960.28
2022-12-28T02:18:26.640Z,93961.66
2022-12-28T02:19:58.409Z,93953.06
2022-12-28T02:21:42.142Z,93948.00
2022-12-28T02:23:32.138Z,93956.28
2022-12-28T02:25:22.499Z,93953.31
2022-12-28T02:26:54.049Z,93951.69
2022-12-28T02:28:43.816Z,93946.63
2022-12-28T02:30:15.527Z,93942.31
2022-12-28T02:31:51.908Z,93945.25
2022-12-28T02:33:55.915Z,93945.50
2022-12-28T02:35:45.205Z,93945.75
2022-12-28T02:37:21.009Z,93949.22
2022-12-28T02:38:54.359Z,93947.09
2022-12-28T02:40:27.136Z,93945.78
2022-12-28T02:41:58.794Z,93946.03
2022-12-28T02:43:30.495Z,93949.78
2022-12-28T02:45:20.720Z,93947.59
2022-12-28T02:47:11.063Z,93946.00
2022-12-28T02:49:01.669Z,93941.19
2022-12-28T02:50:53.612Z,93945.97
2022-12-28T02:52:44.252Z,93946.72
2022-12-28T02:54:40.717Z,93936.22
2022-12-28T02:56:38.571Z,93936.69
2022-12-28T02:58:19.242Z,93936.41
2022-12-28T03:00:00.175Z,93931.31
2022-12-28T03:01:34.847Z,93931.53
2022-12-28T03:03:09.540Z,93932.84
2022-12-28T03:04:59.834Z,93925.59
2022-12-28T03:06:58.758Z,93922.09
2022-12-28T03:08:46.109Z,93915.63
2022-12-28T03:10:20.719Z,93922.19
2022-12-28T03:11:59.992Z,93919.25
2022-12-28T03:13:45.529Z,93917.38
2022-12-28T03:15:29.803Z,93919.78
2022-12-28T03:17:20.474Z,93914.97
2022-12-28T03:19:12.297Z,93914.97
2022-12-28T03:21:02.780Z,93927.84
2022-12-28T03:22:53.220Z,93916.41
2022-12-28T03:24:43.318Z,93921.59
2022-12-28T03:26:33.526Z,93931.03
2022-12-28T03:28:23.905Z,93931.88
2022-12-28T03:30:16.737Z,93930.31
2022-12-28T03:31:48.423Z,93928.13
2022-12-28T03:33:20.034Z,93929.19
2022-12-28T03:34:51.693Z,93925.97
2022-12-28T03:36:26.091Z,93930.81
2022-12-28T03:37:58.636Z,93930.25
2022-12-28T03:39:35.909Z,93938.25
2022-12-28T03:41:08.488Z,93931.31
2022-12-28T03:42:59.485Z,93930.22
2022-12-28T03:44:32.598Z,93931.22
2022-12-28T03:46:11.755Z,93928.53
2022-12-28T03:47:43.354Z,93929.03
2022-12-28T03:49:15.485Z,93941.56
2022-12-28T03:50:47.624Z,93937.53
2022-12-28T03:52:19.267Z,93942.63
2022-12-28T03:53:50.981Z,93936.78
2022-12-28T03:55:22.712Z,93937.06
2022-12-28T03:56:54.212Z,93931.22
2022-12-28T03:58:25.823Z,93935.25
2022-12-28T03:59:57.518Z,93934.75
2022-12-28T04:01:29.173Z,93945.19
2022-12-28T04:03:00.852Z,93942.78
2022-12-28T04:04:32.606Z,93940.69
2022-12-28T04:06:04.488Z,93939.06
2022-12-28T04:07:36.024Z,93937.19
2022-12-28T04:09:07.712Z,93933.72
2022-12-28T04:10:39.307Z,93930.50
2022-12-28T04:12:12.627Z,93935.28
2022-12-28T04:13:44.622Z,93942.53
2022-12-28T04:15:16.180Z,93942.53
2022-12-28T04:16:47.676Z,93938.50
2022-12-28T04:18:19.308Z,93941.97
2022-12-28T04:19:50.988Z,93939.78
2022-12-28T04:21:22.516Z,93940.03
2022-12-28T04:22:54.144Z,93945.88
2022-12-28T04:24:25.829Z,93945.34
2022-12-28T04:26:07.477Z,93957.91
2022-12-28T04:27:39.166Z,93960.25
2022-12-28T04:29:10.829Z,93962.91
2022-12-28T04:30:42.343Z,93961.25
2022-12-28T04:32:14.031Z,93968.16
2022-12-28T04:33:45.555Z,93964.69
2022-12-28T04:35:17.089Z,93955.00
2022-12-28T04:36:48.848Z,93948.59
2022-12-28T04:38:20.677Z,93945.28
2022-12-28T04:39:55.092Z,93943.66
2022-12-28T04:41:28.676Z,93944.38
2022-12-28T04:43:00.177Z,93949.97
2022-12-28T04:44:32.626Z,93948.38
2022-12-28T04:46:05.108Z,93942.25
2022-12-28T04:47:36.740Z,93946.78
2022-12-28T04:49:08.799Z,93949.19
2022-12-28T04:50:40.409Z,93951.84
2022-12-28T04:52:12.140Z,93942.28
2022-12-28T04:53:43.730Z,93942.09
2022-12-28T04:55:32.430Z,93943.25
2022-12-28T04:57:05.114Z,93940.94
2022-12-28T04:58:36.627Z,93945.22
2022-12-28T05:00:08.535Z,93942.56
2022-12-28T05:01:40.390Z,93951.94
2022-12-28T05:03:12.113Z,93950.94
2022-12-28T05:04:44.407Z,93945.06
2022-12-28T05:06:16.916Z,93949.59
2022-12-28T05:07:48.495Z,93944.03
2022-12-28T05:09:20.048Z,93941.91
2022-12-28T05:10:51.658Z,93941.09
2022-12-28T05:12:23.268Z,93936.81
2022-12-28T05:13:55.036Z,93933.06
2022-12-28T05:15:26.598Z,93931.66
2022-12-28T05:16:58.139Z,93941.22
2022-12-28T05:18:29.778Z,93941.72
2022-12-28T05:20:01.295Z,93938.75
2022-12-28T05:21:32.947Z,93939.56
2022-12-28T05:23:04.499Z,93939.56
2022-12-28T05:24:36.031Z,93936.94
2022-12-28T05:26:07.942Z,93928.69
2022-12-28T05:27:39.445Z,93933.78
2022-12-28T05:29:11.155Z,93939.66
2022-12-28T05:30:42.818Z,93941.31
2022-12-28T05:32:14.533Z,93935.19
2022-12-28T05:33:47.757Z,93934.63
2022-12-28T05:35:19.431Z,93933.81
2022-12-28T05:36:51.084Z,93931.16
2022-12-28T05:38:22.707Z,93931.94
2022-12-28T05:39:54.405Z,93939.97
2022-12-28T05:41:27.149Z,93942.69
2022-12-28T05:42:59.798Z,93951.75
2022-12-28T05:44:31.530Z,93956.78
2022-12-28T05:46:03.613Z,93947.66
2022-12-28T05:47:35.119Z,93946.84
2022-12-28T05:49:08.069Z,93954.59
2022-12-28T05:50:39.833Z,93945.50
2022-12-28T05:52:11.573Z,93948.69
2022-12-28T05:53:43.453Z,93950.47
2022-12-28T05:55:15.113Z,93958.72
2022-12-28T05:56:47.031Z,93952.31
2022-12-28T05:58:19.213Z,93956.03
2022-12-28T05:59:51.469Z,93958.13
2022-12-28T06:01:23.712Z,93961.63
2022-12-28T06:02:55.364Z,93962.41
2022-12-28T06:04:27.237Z,93968.00
2022-12-28T06:06:02.630Z,93974.16
2022-12-28T06:07:34.216Z,93966.16
2022-12-28T06:09:05.972Z,93960.56
2022-12-28T06:10:37.576Z,93961.94
2022-12-28T06:12:09.223Z,93957.97
2022-12-28T06:13:41.087Z,93958.25
2022-12-28T06:15:13.076Z,93956.13
2022-12-28T06:16:46.428Z,93956.69
2022-12-28T06:18:18.461Z,93952.97
2022-12-28T06:19:50.223Z,93962.06
2022-12-28T06:21:21.870Z,93966.34
2022-12-28T06:22:53.572Z,93962.38
2022-12-28T06:24:25.333Z,93962.69
2022-12-28T06:25:58.273Z,93961.09
2022-12-28T06:27:29.991Z,93970.78
2022-12-28T06:29:04.450Z,93970.28
2022-12-28T06:30:36.911Z,93963.34
2022-12-28T06:32:15.296Z,93970.34
2022-12-28T06:33:47.585Z,93961.31
2022-12-28T06:35:19.951Z,93976.03
2022-12-28T06:36:53.101Z,93971.19
2022-12-28T06:38:30.392Z,93972.47
2022-12-28T06:40:03.397Z,93973.13
2022-12-28T06:41:35.846Z,93970.94
2022-12-28T06:43:08.050Z,93973.25
2022-12-28T06:44:44.821Z,93969.78
2022-12-28T06:46:19.600Z,93976.97
2022-12-28T06:47:51.492Z,93967.28
2022-12-28T06:49:24.309Z,93980.06
2022-12-28T06:51:17.151Z,93985.41
2022-12-28T06:52:48.926Z,93975.50
2022-12-28T06:54:20.760Z,93973.34
2022-12-28T06:55:53.916Z,93973.84
2022-12-28T06:57:25.964Z,93971.72
2022-12-28T06:59:02.792Z,93985.94
2022-12-28T07:00:35.931Z,93978.50
2022-12-28T07:02:11.325Z,93984.13
2022-12-28T07:03:45.300Z,93979.91
2022-12-28T07:05:17.775Z,93991.41
2022-12-28T07:06:53.622Z,93990.09
2022-12-28T07:08:25.725Z,93991.78
2022-12-28T07:09:57.783Z,93986.47
2022-12-28T07:11:30.149Z,93996.09
2022-12-28T07:13:02.544Z,93997.97
2022-12-28T07:14:34.291Z,93994.25
2022-12-28T07:16:14.048Z,93985.72
2022-12-28T07:17:59.003Z,93985.50
2022-12-28T07:19:31.098Z,93983.97
2022-12-28T07:21:04.212Z,93989.59
2022-12-28T07:22:36.278Z,93994.97
2022-12-28T07:24:08.617Z,93994.22
2022-12-28T07:25:41.013Z,93989.22
2022-12-28T07:27:19.131Z,93991.66
2022-12-28T07:28:52.642Z,93994.13
2022-12-28T07:30:24.357Z,93992.00
2022-12-28T07:31:56.426Z,93987.75
2022-12-28T07:33:28.326Z,93996.06
2022-12-28T07:35:00.078Z,93996.63
2022-12-28T07:36:34.557Z,93999.03
2022-12-28T07:38:06.347Z,93989.69
2022-12-28T07:39:38.255Z,93988.41
2022-12-28T07:41:42.474Z,93992.72
2022-12-28T07:43:12.706Z,93992.41
2022-12-28T07:44:49.174Z,93992.72
2022-12-28T07:46:25.592Z,93994.03
2022-12-28T07:47:57.966Z,93991.09
2022-12-28T07:49:29.751Z,93993.22
2022-12-28T07:51:13.481Z,93994.84
2022-12-28T07:52:45.712Z,93994.31
2022-12-28T07:54:17.676Z,93995.91
2022-12-28T07:55:56.549Z,93997.00
2022-12-28T07:57:28.289Z,94007.75
2022-12-28T07:59:00.682Z,94003.72
2022-12-28T08:00:32.505Z,93997.06
2022-12-28T08:02:04.598Z,94001.34
2022-12-28T08:03:36.645Z,94003.28
2022-12-28T08:05:08.763Z,94002.22
2022-12-28T08:06:42.002Z,94003.31
2022-12-28T08:08:17.433Z,94009.22
2022-12-28T08:10:02.513Z,94005.44
2022-12-28T08:11:35.099Z,94007.31
2022-12-28T08:13:06.999Z,94005.69
2022-12-28T08:14:38.911Z,94007.06
2022-12-28T08:16:12.007Z,94012.97
2022-12-28T08:17:44.427Z,94013.78
2022-12-28T08:19:16.288Z,94014.91
2022-12-28T08:20:48.817Z,94005.56
2022-12-28T08:22:20.672Z,93996.50
2022-12-28T08:23:52.494Z,93998.41
2022-12-28T08:25:26.215Z,93998.94
2022-12-28T08:26:58.309Z,94006.47
2022-12-28T08:28:30.079Z,94011.59
2022-12-28T08:30:01.778Z,94010.28
2022-12-28T08:31:35.348Z,94020.47
2022-12-28T08:33:16.263Z,94025.88
2022-12-28T08:34:48.284Z,94021.56
2022-12-28T08:36:20.167Z,94017.03
2022-12-28T08:37:54.958Z,94011.41
2022-12-28T08:39:27.439Z,94020.00
2022-12-28T08:40:59.920Z,94008.75
2022-12-28T08:42:31.854Z,93997.53
2022-12-28T08:44:03.740Z,93996.97
2022-12-28T08:45:36.180Z,94009.06
2022-12-28T08:47:07.895Z,94006.94
2022-12-28T08:48:39.660Z,94000.78
2022-12-28T08:50:12.343Z,94006.69
2022-12-28T08:51:44.553Z,93997.31
2022-12-28T08:53:16.429Z,93998.41
2022-12-28T08:54:48.183Z,93996.50
2022-12-28T08:56:23.489Z,94001.38
2022-12-28T08:57:55.310Z,94005.63
2022-12-28T08:59:27.496Z,94002.94
2022-12-28T09:01:20.063Z,93998.91
2022-12-28T09:02:52.470Z,93993.78
2022-12-28T09:04:24.419Z,93999.63
2022-12-28T09:05:56.556Z,94001.50
2022-12-28T09:07:28.602Z,94003.34
2022-12-28T09:09:06.290Z,94002.25
2022-12-28T09:10:39.152Z,94010.81
2022-12-28T09:12:10.959Z,94013.47
2022-12-28T09:14:36.512Z,94009.19
2022-12-28T09:16:14.851Z,94003.28
2022-12-28T09:17:47.219Z,93997.66
2022-12-28T09:19:19.392Z,94001.97
2022-12-28T09:20:51.109Z,93995.81
2022-12-28T09:22:23.891Z,94003.56
2022-12-28T09:23:55.820Z,93992.09
2022-12-28T09:25:27.485Z,93987.84
2022-12-28T09:26:59.162Z,93980.91
2022-12-28T09:28:31.112Z,93980.91
2022-12-28T09:30:04.118Z,93981.47
2022-12-28T09:31:40.534Z,93982.03
2022-12-28T09:33:31.311Z,93978.28
2022-12-28T09:35:03.336Z,93972.69
2022-12-28T09:36:39.154Z,93976.69
2022-12-28T09:38:10.947Z,93964.38
2022-12-28T09:39:42.630Z,93969.47
2022-12-28T09:41:26.267Z,93961.97
2022-12-28T09:43:01.431Z,93970.00
2022-12-28T09:45:05.136Z,93962.47
2022-12-28T09:46:37.246Z,93958.72
2022-12-28T09:48:11.003Z,93966.25
2022-12-28T09:49:44.797Z,93967.59
2022-12-28T09:51:16.665Z,93956.88
2022-12-28T09:52:54.093Z,93959.28
2022-12-28T09:54:26.054Z,93957.94
2022-12-28T09:55:59.091Z,93954.97
2022-12-28T09:57:33.737Z,93954.94
2022-12-28T09:59:06.082Z,93948.78
2022-12-28T10:00:39.017Z,93949.06
2022-12-28T10:02:27.414Z,93956.81
2022-12-28T10:03:59.766Z,93945.84
2022-12-28T10:05:31.561Z,93947.47
2022-12-28T10:07:03.419Z,93938.34
2022-12-28T10:08:35.126Z,93935.16
2022-12-28T10:10:07.114Z,93937.28
2022-12-28T10:11:42.127Z,93933.81
2022-12-28T10:13:45.442Z,93929.53
2022-12-28T10:15:10.108Z,93923.38
2022-12-28T10:16:46.947Z,93927.13
2022-12-28T10:18:22.618Z,93926.88
2022-12-28T10:19:55.062Z,93926.31
2022-12-28T10:21:32.463Z,93919.91
2022-12-28T10:23:04.474Z,93924.16
2022-12-28T10:24:36.169Z,93923.38
2022-12-28T10:26:07.758Z,93925.50
2022-12-28T10:27:39.466Z,93918.28
2022-12-28T10:29:14.132Z,93916.13
2022-12-28T10:30:48.519Z,93903.00
2022-12-28T10:32:20.456Z,93917.47
2022-12-28T10:33:52.644Z,93911.56
2022-12-28T10:35:25.539Z,93917.44
2022-12-28T10:36:59.629Z,93923.38
2022-12-28T10:38:32.451Z,93921.22
2022-12-28T10:40:06.961Z,93920.41
2022-12-28T10:41:39.239Z,93919.59
2022-12-28T10:43:18.421Z,93917.47
2022-12-28T10:44:50.236Z,93914.53
2022-12-28T10:46:24.712Z,93912.09
2022-12-28T10:47:57.269Z,93912.59
2022-12-28T10:49:32.253Z,93914.47
2022-12-28T10:51:13.805Z,93908.28
2022-12-28T10:52:55.358Z,93911.75
2022-12-28T10:54:27.582Z,93908.00
2022-12-28T10:56:15.016Z,93903.97
2022-12-28T10:58:19.052Z,93905.53
2022-12-28T10:59:41.256Z,93903.34
2022-12-28T11:01:13.130Z,93909.56
2022-12-28T11:02:45.112Z,93897.22
2022-12-28T11:04:20.678Z,93899.03
2022-12-28T11:06:07.999Z,93899.84
2022-12-28T11:07:41.333Z,93905.19
2022-12-28T11:09:13.091Z,93911.34
2022-12-28T11:10:45.064Z,93904.91
2022-12-28T11:12:17.447Z,93907.09
2022-12-28T11:13:51.287Z,93903.06
2022-12-28T11:15:24.126Z,93903.06
2022-12-28T11:16:55.948Z,93902.00
2022-12-28T11:18:30.808Z,93896.88
2022-12-28T11:20:14.920Z,93893.09
2022-12-28T11:21:49.724Z,93896.78
2022-12-28T11:23:22.088Z,93894.63
2022-12-28T11:24:53.998Z,93901.56
2022-12-28T11:26:26.457Z,93901.28
2022-12-28T11:27:58.188Z,93902.03
2022-12-28T11:29:29.866Z,93894.78
2022-12-28T11:31:01.622Z,93895.03
2022-12-28T11:32:39.973Z,93895.31
2022-12-28T11:34:19.799Z,93893.97
2022-12-28T11:35:58.937Z,93884.59
2022-12-28T11:37:31.549Z,93887.28
2022-12-28T11:39:23.183Z,93882.97
2022-12-28T11:41:04.080Z,93893.41
2022-12-28T11:42:53.128Z,93893.63
2022-12-28T11:44:30.759Z,93894.97
2022-12-28T11:46:06.041Z,93897.38
2022-12-28T11:47:37.947Z,93893.34
2022-12-28T11:49:26.171Z,93892.75
2022-12-28T11:51:04.808Z,93887.09
2022-12-28T11:52:44.736Z,93891.94
2022-12-28T11:54:34.768Z,93887.88
2022-12-28T11:56:09.671Z,93886.00
2022-12-28T11:57:42.756Z,93891.41
2022-12-28T11:59:27.412Z,93885.28
2022-12-28T12:01:05.417Z,93883.94
2022-12-28T12:02:43.007Z,93890.41
2022-12-28T12:04:18.531Z,93887.72
2022-12-28T12:05:51.218Z,93881.25
2022-12-28T12:07:30.685Z,93877.50
2022-12-28T12:09:03.679Z,93888.25
2022-12-28T12:10:35.790Z,93882.06
2022-12-28T12:12:18.572Z,93875.63
2022-12-28T12:13:50.756Z,93880.19
2022-12-28T12:15:24.969Z,93877.00
2022-12-28T12:17:06.469Z,93872.75
2022-12-28T12:18:49.248Z,93872.00
2022-12-28T12:20:26.313Z,93870.41
2022-12-28T12:22:01.507Z,93866.44
2022-12-28T12:23:41.072Z,93866.19
2022-12-28T12:25:12.757Z,93862.72
2022-12-28T12:26:45.633Z,93859.25
2022-12-28T12:28:38.431Z,93856.56
2022-12-28T12:30:15.680Z,93856.09
2022-12-28T12:31:49.280Z,93853.69
2022-12-28T12:33:25.817Z,93854.75
2022-12-28T12:35:08.723Z,93847.78
2022-12-28T12:36:52.500Z,93848.06
2022-12-28T12:38:41.158Z,93854.22
2022-12-28T12:40:35.603Z,93848.59
2022-12-28T12:42:24.557Z,93854.22
2022-12-28T12:44:07.184Z,93846.19
2022-12-28T12:45:41.933Z,93842.69
2022-12-28T12:47:13.880Z,93846.69
2022-12-28T12:49:04.358Z,93845.84
2022-12-28T12:50:46.839Z,93844.50
2022-12-28T12:52:35.259Z,93850.66
2022-12-28T12:54:31.529Z,93849.28
2022-12-28T12:56:08.531Z,93849.84
2022-12-28T12:57:46.211Z,93848.00
2022-12-28T12:59:20.740Z,93845.59
2022-12-28T13:01:01.763Z,93850.41
2022-12-28T13:02:39.353Z,93851.53
2022-12-28T13:04:18.683Z,93852.59
2022-12-28T13:05:53.977Z,93856.38
2022-12-28T13:07:26.269Z,93854.22
2022-12-28T13:09:04.806Z,93854.75
2022-12-28T13:10:38.163Z,93849.13
2022-12-28T13:12:14.465Z,93848.31
2022-12-28T13:13:47.017Z,93846.44
2022-12-28T13:15:18.749Z,93848.31
2022-12-28T13:16:51.368Z,93841.88
2022-12-28T13:20:21.443Z,93832.44
2022-12-28T13:21:53.260Z,93829.75
2022-12-28T13:23:25.081Z,93830.53
2022-12-28T13:24:56.938Z,93824.63
2022-12-28T13:26:29.403Z,93828.69
2022-12-28T13:28:04.108Z,93824.69
2022-12-28T13:29:40.677Z,93822.56
2022-12-28T13:31:21.072Z,93822.59
2022-12-28T13:32:54.065Z,93823.69
2022-12-28T13:34:27.646Z,93828.25
2022-12-28T13:36:25.674Z,93826.38
2022-12-28T13:38:09.288Z,93820.19
2022-12-28T13:39:42.283Z,93829.06
2022-12-28T13:41:19.106Z,93828.50
2022-12-28T13:43:04.844Z,93828.50
2022-12-28T13:44:39.716Z,93813.47
2022-12-28T13:46:11.879Z,93816.97
2022-12-28T13:47:44.851Z,93819.41
2022-12-28T13:49:16.849Z,93819.66
2022-12-28T13:50:56.176Z,93817.53
2022-12-28T13:52:30.830Z,93822.06
2022-12-28T13:54:02.779Z,93818.06
2022-12-28T13:55:44.937Z,93823.16
2022-12-28T13:59:17.633Z,93830.66
2022-12-28T14:00:50.117Z,93820.72
2022-12-28T14:02:22.114Z,93814.56
2022-12-28T14:04:08.877Z,93812.94
2022-12-28T14:05:48.287Z,93816.19
2022-12-28T14:07:20.334Z,93810.00
2022-12-28T14:08:52.110Z,93811.09
2022-12-28T14:10:25.238Z,93810.28
2022-12-28T14:12:05.615Z,93809.75
2022-12-28T14:13:38.363Z,93814.63
2022-12-28T14:15:10.943Z,93806.00
2022-12-28T14:16:42.547Z,93808.69
2022-12-28T14:18:15.036Z,93800.63
2022-12-28T14:19:46.754Z,93807.88
2022-12-28T14:21:32.079Z,93806.78
2022-12-28T14:23:22.964Z,93815.66
2022-12-28T14:25:01.463Z,93808.69
2022-12-28T14:26:33.165Z,93807.66
2022-12-28T14:28:08.304Z,93808.72
2022-12-28T14:29:42.726Z,93807.38
2022-12-28T14:31:21.130Z,93810.03
2022-12-28T14:32:55.231Z,93802.84
2022-12-28T14:34:28.993Z,93809.28
2022-12-28T14:36:01.997Z,93807.41
2022-12-28T14:37:36.064Z,93812.50
2022-12-28T14:39:15.989Z,93811.44
2022-12-28T14:40:55.547Z,93814.09
2022-12-28T14:42:27.255Z,93808.22
2022-12-28T14:44:00.323Z,93815.72
2022-12-28T14:46:07.225Z,93809.28
2022-12-28T14:47:35.427Z,93810.13
2022-12-28T14:49:25.812Z,93820.34
2022-12-28T14:50:57.754Z,93817.91
2022-12-28T14:52:29.781Z,93825.44
2022-12-28T14:54:17.454Z,93827.06
2022-12-28T14:55:58.437Z,93827.88
2022-12-28T14:57:40.365Z,93823.31
2022-12-28T14:59:22.555Z,93824.16
2022-12-28T15:00:58.190Z,93817.72
2022-12-28T15:02:41.409Z,93821.78
2022-12-28T15:04:30.645Z,93825.56
2022-12-28T15:06:03.264Z,93821.81
2022-12-28T15:07:35.137Z,93823.69
2022-12-28T15:09:11.706Z,93819.13
2022-12-28T15:10:53.798Z,93825.31
2022-12-28T15:12:25.572Z,93817.81
2022-12-28T15:13:57.612Z,93825.88
2022-12-28T15:15:29.329Z,93830.72
2022-12-28T15:17:01.060Z,93827.50
2022-12-28T15:18:35.455Z,93823.22
2022-12-28T15:20:07.812Z,93825.09
2022-12-28T15:21:39.876Z,93825.91
2022-12-28T15:23:11.660Z,93828.03
2022-12-28T15:24:45.687Z,93822.41
2022-12-28T15:26:20.794Z,93818.16
2022-12-28T15:27:52.941Z,93812.78
2022-12-28T15:29:39.982Z,93815.47
2022-12-28T15:31:18.193Z,93817.88
2022-12-28T15:32:50.283Z,93816.53
2022-12-28T15:34:22.013Z,93816.53
2022-12-28T15:36:01.999Z,93815.47
2022-12-28T15:37:33.957Z,93809.03
2022-12-28T15:39:05.682Z,93817.59
2022-12-28T15:40:39.565Z,93816.00
2022-12-28T15:42:11.259Z,93813.84
2022-12-28T15:43:43.116Z,93813.31
2022-12-28T15:45:18.026Z,93817.31
2022-12-28T15:46:53.137Z,93815.44
2022-12-28T15:48:25.233Z,93819.19
2022-12-28T15:49:59.403Z,93819.75
2022-12-28T15:51:31.307Z,93822.41
2022-12-28T15:53:03.076Z,93818.41
2022-12-28T15:54:35.607Z,93825.09
2022-12-28T15:56:07.381Z,93825.09
2022-12-28T15:57:39.016Z,93828.28
2022-12-28T15:59:14.618Z,93826.16
2022-12-28T16:00:48.755Z,93827.22
2022-12-28T16:02:21.170Z,93824.81
2022-12-28T16:03:54.244Z,93829.88
2022-12-28T16:05:25.935Z,93828.00
2022-12-28T16:06:57.751Z,93827.75
2022-12-28T16:08:30.332Z,93830.69
2022-12-28T16:10:02.019Z,93835.00
2022-12-28T16:11:34.449Z,93836.28
2022-12-28T16:13:06.175Z,93830.97
2022-12-28T16:14:37.765Z,93835.78
2022-12-28T16:16:10.435Z,93833.09
2022-12-28T16:17:55.113Z,93833.09
2022-12-28T16:19:29.221Z,93842.44
2022-12-28T16:21:02.141Z,93834.97
2022-12-28T16:22:38.194Z,93841.94
2022-12-28T16:24:09.948Z,93841.66
2022-12-28T16:25:49.175Z,93838.97
2022-12-28T16:27:21.119Z,93849.13
2022-12-28T16:28:53.022Z,93843.78
2022-12-28T16:30:24.755Z,93844.34
2022-12-28T16:31:58.499Z,93847.28
2022-12-28T16:33:30.128Z,93844.06
2022-12-28T16:35:02.313Z,93844.31
2022-12-28T16:36:34.517Z,93839.75
2022-12-28T16:38:13.433Z,93845.38
2022-12-28T16:39:45.306Z,93839.47
2022-12-28T16:41:18.164Z,93842.69
2022-12-28T16:42:49.951Z,93849.63
2022-12-28T16:44:22.472Z,93851.25
2022-12-28T16:45:54.265Z,93851.72
2022-12-28T16:47:26.048Z,93848.22
2022-12-28T16:49:02.001Z,93855.19
2022-12-28T16:50:33.759Z,93856.84
2022-12-28T16:52:05.914Z,93857.91
2022-12-28T16:53:37.489Z,93860.88
2022-12-28T16:55:09.280Z,93863.84
2022-12-28T16:56:41.131Z,93858.75
2022-12-28T16:58:12.852Z,93854.97
2022-12-28T16:59:44.557Z,93861.94
2022-12-28T17:01:16.370Z,93867.81
2022-12-28T17:02:48.820Z,93864.28
2022-12-28T17:04:20.900Z,93858.41
2022-12-28T17:05:58.651Z,93869.88
2022-12-28T17:07:32.812Z,93869.09
2022-12-28T17:09:04.732Z,93873.16
2022-12-28T17:10:39.146Z,93875.31
2022-12-28T17:12:10.808Z,93872.09
2022-12-28T17:13:49.623Z,93881.72
2022-12-28T17:15:21.342Z,93874.25
2022-12-28T17:16:53.109Z,93876.16
2022-12-28T17:18:24.842Z,93883.38
2022-12-28T17:20:00.100Z,93879.63
2022-12-28T17:21:32.134Z,93880.19
2022-12-28T17:23:04.217Z,93881.25
2022-12-28T17:24:36.410Z,93879.63
2022-12-28T17:26:08.145Z,93884.47
2022-12-28T17:27:39.870Z,93884.47
2022-12-28T17:29:11.874Z,93875.88
2022-12-28T17:30:43.644Z,93871.88
2022-12-28T17:32:15.797Z,93876.41
2022-12-28T17:33:47.971Z,93872.13
2022-12-28T17:35:19.784Z,93873.72
2022-12-28T17:36:52.975Z,93875.31
2022-12-28T17:38:24.726Z,93868.84
2022-12-28T17:39:56.507Z,93863.00
2022-12-28T17:41:28.199Z,93863.00
2022-12-28T17:42:59.882Z,93872.31
2022-12-28T17:44:31.731Z,93872.03
2022-12-28T17:46:03.430Z,93870.50
2022-12-28T17:47:38.126Z,93867.28
2022-12-28T17:49:13.465Z,93866.97
2022-12-28T17:50:47.261Z,93864.00
2022-12-28T17:52:21.978Z,93864.00
2022-12-28T17:53:54.091Z,93869.88
2022-12-28T17:55:25.849Z,93872.56
2022-12-28T17:56:57.661Z,93875.75
2022-12-28T17:58:29.611Z,93873.59
2022-12-28T18:00:01.423Z,93877.31
2022-12-28T18:01:33.695Z,93879.69
2022-12-28T18:03:06.756Z,93884.50
2022-12-28T18:04:38.994Z,93887.16
2022-12-28T18:06:10.645Z,93881.81
2022-12-28T18:07:42.267Z,93884.44
2022-12-28T18:09:13.863Z,93884.69
2022-12-28T18:10:48.219Z,93887.38
2022-12-28T18:12:19.920Z,93886.31
2022-12-28T18:13:51.824Z,93889.25
2022-12-28T18:15:27.267Z,93881.47
2022-12-28T18:17:01.524Z,93888.97
2022-12-28T18:18:33.084Z,93882.56
2022-12-28T18:20:04.968Z,93881.78
2022-12-28T18:21:36.517Z,93884.16
2022-12-28T18:23:08.351Z,93888.69
2022-12-28T18:24:40.123Z,93887.34
2022-12-28T18:26:15.564Z,93889.47
2022-12-28T18:27:47.842Z,93885.16
2022-12-28T18:29:19.474Z,93891.28
2022-12-28T18:30:52.566Z,93884.34
2022-12-28T18:32:26.020Z,93893.69
2022-12-28T18:33:58.783Z,93889.19
2022-12-28T18:35:30.547Z,93891.63
2022-12-28T18:37:02.323Z,93881.78
2022-12-28T18:38:34.701Z,93883.13
2022-12-28T18:40:06.763Z,93882.03